»·PEaware :: N701GT KMRY-KCRQ

N701GT :: KMRY-KCRQ

FLIGHT INFORMATION

Flight Status: Arrived
Operator: Privately registered:
United States
More flights under this callsign
Pilot: Anonymous 17564 (17564)
Aircraft: CESSNA 310
(C310)
More flights by this aircraft type
Origin: KMRY Monterey Peninsula
United States
Destination: KCRQ McClellan-Palomar
United States
More flights between these airports :: More routes between these airports
Route: MRY4 SNS V25 RZS V186 DARTS V597 OCN
File this flight plan on PilotEdge
Remarks:
Altitude:
(Current/Filed)
15,000ft
Speed:
(Current/Filed)
180kts
Departed: 10-Jul-18 03:50 PM
Arrived: 10-Jul-18 05:56 PM
Distance/Time
Traveled:
306nm/2:05
Distance/Time
To Go:
Arrived

Flight Plot

Page will automatically refresh every two minutes.


Map Options




Map Legend


Flown Route
Filed Route
Departure Airport
Arrival Airport
Navaid (VOR, NDB)
Fix

Horizontal Profiles

Position Reports

Time Latitude Longitude Heading Altitude Ground
Speed
10-Jul-18 15:34 36.588835 -121.853877 245 208ft 0kts
10-Jul-18 15:35 36.588835 -121.853877 245 208ft 0kts
10-Jul-18 15:36 36.588835 -121.853877 245 208ft 0kts
10-Jul-18 15:37 36.588835 -121.853877 245 208ft 0kts
10-Jul-18 15:38 36.588835 -121.853877 245 208ft 0kts
10-Jul-18 15:39 36.588835 -121.853877 245 208ft 0kts
10-Jul-18 15:40 36.588835 -121.853877 245 208ft 0kts
10-Jul-18 15:41 36.588835 -121.853877 245 208ft 0kts
10-Jul-18 15:42 36.588835 -121.853877 245 208ft 0kts
10-Jul-18 15:43 36.588835 -121.853877 245 208ft 0kts
10-Jul-18 15:44 36.588835 -121.853877 245 208ft 0kts
10-Jul-18 15:45 36.588936 -121.853923 42 208ft 0kts
10-Jul-18 15:46 36.588587 -121.851508 111 208ft 15kts
10-Jul-18 15:47 36.586893 -121.846502 119 208ft 14kts
10-Jul-18 15:48 36.585078 -121.841595 111 208ft 14kts
10-Jul-18 15:49 36.583249 -121.836174 112 208ft 17kts
10-Jul-18 15:50 36.582853 -121.834669 90 208ft 0kts
10-Jul-18 15:51 36.583942 -121.835410 292 208ft 53kts
10-Jul-18 15:52 36.594619 -121.865945 298 1175ft 127kts
10-Jul-18 15:53 36.630137 -121.882425 343 2562ft 141kts
10-Jul-18 15:54 36.666297 -121.896001 342 3844ft 130kts
10-Jul-18 15:55 36.700953 -121.909163 343 5030ft 129kts
10-Jul-18 15:56 36.711892 -121.874417 94 6216ft 144kts
10-Jul-18 15:57 36.704627 -121.825491 99 7331ft 147kts
10-Jul-18 15:58 36.694982 -121.771824 101 8108ft 173kts
10-Jul-18 15:59 36.683976 -121.712048 101 8805ft 179kts
10-Jul-18 16:00 36.672896 -121.651933 102 9500ft 178kts
10-Jul-18 16:01 36.658256 -121.595258 141 10115ft 167kts
10-Jul-18 16:02 36.621578 -121.560886 143 10728ft 166kts
10-Jul-18 16:03 36.585969 -121.525250 143 11303ft 160kts
10-Jul-18 16:04 36.551299 -121.490662 144 11936ft 165kts
10-Jul-18 16:05 36.515168 -121.454626 144 12539ft 168kts
10-Jul-18 16:06 36.479538 -121.419192 144 13077ft 155kts
10-Jul-18 16:07 36.447311 -121.387074 144 13644ft 142kts
10-Jul-18 16:08 36.424954 -121.364969 144 14099ft 142kts
10-Jul-18 16:09 36.392678 -121.332937 144 14726ft 153kts
10-Jul-18 16:10 36.359106 -121.299647 143 15085ft 163kts
10-Jul-18 16:11 36.323069 -121.263896 143 15048ft 162kts
10-Jul-18 16:12 36.288332 -121.229537 143 15046ft 158kts
10-Jul-18 16:13 36.254569 -121.196218 143 15046ft 150kts
10-Jul-18 16:14 36.222270 -121.164402 144 15052ft 158kts
10-Jul-18 16:15 36.186452 -121.129012 143 15031ft 164kts
10-Jul-18 16:16 36.150057 -121.093168 143 15035ft 175kts
10-Jul-18 16:17 36.112447 -121.056185 143 15015ft 167kts
10-Jul-18 16:18 36.076552 -121.020954 143 15011ft 162kts
10-Jul-18 16:19 36.041309 -120.986382 143 15010ft 161kts
10-Jul-18 16:20 36.009970 -120.955664 143 15009ft 160kts
10-Jul-18 16:21 35.974895 -120.921348 142 15007ft 161kts
10-Jul-18 16:22 35.939687 -120.886939 142 15001ft 162kts
10-Jul-18 16:23 35.904012 -120.852100 142 15009ft 164kts
10-Jul-18 16:24 35.868007 -120.816987 142 14998ft 164kts
10-Jul-18 16:25 35.834370 -120.784259 142 14995ft 163kts
10-Jul-18 16:26 35.800244 -120.751077 142 14995ft 163kts
10-Jul-18 16:27 35.763771 -120.715607 142 15007ft 176kts
10-Jul-18 16:28 35.725742 -120.678628 142 14989ft 169kts
10-Jul-18 16:29 35.690184 -120.644189 142 14994ft 161kts
10-Jul-18 16:30 35.653115 -120.612487 149 14992ft 162kts
10-Jul-18 16:31 35.614450 -120.583625 149 14992ft 162kts
10-Jul-18 16:32 35.574938 -120.554090 149 15009ft 176kts
10-Jul-18 16:33 35.533539 -120.523208 149 14995ft 169kts
10-Jul-18 16:34 35.496099 -120.495365 149 14995ft 141kts
10-Jul-18 16:35 35.464628 -120.471982 149 14994ft 124kts
10-Jul-18 16:36 35.434549 -120.449664 149 15067ft 148kts
10-Jul-18 16:37 35.395259 -120.420338 148 15004ft 170kts
10-Jul-18 16:38 35.353981 -120.389647 148 15013ft 180kts
10-Jul-18 16:39 35.311434 -120.358116 148 14997ft 175kts
10-Jul-18 16:40 35.276949 -120.332593 148 15001ft 172kts
10-Jul-18 16:41 35.229085 -120.297204 148 14999ft 172kts
10-Jul-18 16:42 35.188367 -120.267126 148 15017ft 171kts
10-Jul-18 16:43 35.151101 -120.239597 148 15016ft 171kts
10-Jul-18 16:44 35.110140 -120.209454 148 15023ft 172kts
10-Jul-18 16:45 35.069163 -120.179260 149 15021ft 172kts
10-Jul-18 16:46 35.028062 -120.149047 148 15024ft 172kts
10-Jul-18 16:47 34.986241 -120.118308 148 15039ft 180kts
10-Jul-18 16:48 34.951054 -120.092509 148 15019ft 174kts
10-Jul-18 16:49 34.909795 -120.062332 148 15028ft 177kts
10-Jul-18 16:50 34.867634 -120.031439 148 15018ft 173kts
10-Jul-18 16:51 34.826502 -120.001376 148 15012ft 170kts
10-Jul-18 16:52 34.789687 -119.974493 147 15014ft 169kts
10-Jul-18 16:53 34.749146 -119.944943 147 15013ft 170kts
10-Jul-18 16:54 34.708550 -119.915355 147 15013ft 170kts
10-Jul-18 16:55 34.667845 -119.885734 147 15016ft 171kts
10-Jul-18 16:56 34.630387 -119.858532 147 15012ft 171kts
10-Jul-18 16:57 34.589729 -119.828997 147 15034ft 169kts
10-Jul-18 16:58 34.548620 -119.799164 147 15038ft 179kts
10-Jul-18 16:59 34.506700 -119.766549 126 15021ft 173kts
10-Jul-18 17:00 34.481071 -119.718444 120 15022ft 169kts
10-Jul-18 17:01 34.455308 -119.670921 120 15026ft 167kts
10-Jul-18 17:02 34.429699 -119.623686 120 15027ft 167kts
10-Jul-18 17:03 34.404596 -119.577573 120 15035ft 167kts
10-Jul-18 17:04 34.378427 -119.529506 120 15036ft 167kts
10-Jul-18 17:05 34.355565 -119.487611 120 15042ft 167kts
10-Jul-18 17:06 34.332448 -119.445211 120 15040ft 167kts
10-Jul-18 17:07 34.318035 -119.394934 77 15042ft 160kts
10-Jul-18 17:08 34.322613 -119.340542 81 15039ft 167kts
10-Jul-18 17:09 34.326414 -119.289707 82 15020ft 166kts
10-Jul-18 17:10 34.330561 -119.234637 81 15020ft 162kts
10-Jul-18 17:11 34.334621 -119.180308 81 15009ft 161kts
10-Jul-18 17:12 34.338675 -119.126757 81 15007ft 159kts
10-Jul-18 17:13 34.342706 -119.072725 81 15020ft 169kts
10-Jul-18 17:14 34.346857 -119.015573 81 15005ft 165kts
10-Jul-18 17:15 34.350891 -118.961203 81 15012ft 159kts
10-Jul-18 17:16 34.354854 -118.907276 81 15020ft 163kts
10-Jul-18 17:17 34.347685 -118.853538 108 15031ft 169kts
10-Jul-18 17:18 34.329388 -118.800627 108 15032ft 170kts
10-Jul-18 17:19 34.311347 -118.747815 108 15033ft 170kts
10-Jul-18 17:20 34.293245 -118.694942 108 15029ft 170kts
10-Jul-18 17:21 34.275195 -118.642268 107 15025ft 169kts
10-Jul-18 17:22 34.259204 -118.595433 107 15030ft 179kts
10-Jul-18 17:23 34.240068 -118.539745 107 15013ft 176kts
10-Jul-18 17:24 34.221491 -118.485745 106 14997ft 171kts
10-Jul-18 17:25 34.205497 -118.432368 105 15025ft 178kts
10-Jul-18 17:26 34.188365 -118.375487 105 15018ft 183kts
10-Jul-18 17:27 34.171086 -118.318776 105 15001ft 173kts
10-Jul-18 17:28 34.152147 -118.267287 133 15000ft 176kts
10-Jul-18 17:29 34.113789 -118.244877 149 15012ft 184kts
10-Jul-18 17:30 34.067032 -118.217995 149 14995ft 183kts
10-Jul-18 17:31 34.028192 -118.195608 149 14992ft 180kts
10-Jul-18 17:32 33.983168 -118.169569 149 14999ft 180kts
10-Jul-18 17:33 33.937734 -118.143370 149 14999ft 180kts
10-Jul-18 17:34 33.892337 -118.117202 149 15014ft 186kts
10-Jul-18 17:35 33.845589 -118.090399 149 15014ft 187kts
10-Jul-18 17:36 33.804706 -118.067047 149 15016ft 189kts
10-Jul-18 17:37 33.762728 -118.031072 128 15017ft 188kts
10-Jul-18 17:38 33.726291 -117.987255 130 15002ft 179kts
10-Jul-18 17:39 33.690775 -117.945082 130 15017ft 185kts
10-Jul-18 17:40 33.654387 -117.902182 130 15001ft 178kts
10-Jul-18 17:41 33.619402 -117.860915 130 15002ft 175kts
10-Jul-18 17:42 33.584736 -117.820081 130 15000ft 174kts
10-Jul-18 17:43 33.550071 -117.779350 130 15001ft 174kts
10-Jul-18 17:44 33.515573 -117.738803 130 14978ft 172kts
10-Jul-18 17:45 33.481066 -117.698306 130 13738ft 184kts
10-Jul-18 17:46 33.442916 -117.653610 131 12270ft 200kts
10-Jul-18 17:47 33.403093 -117.607015 133 10755ft 198kts
10-Jul-18 17:48 33.362910 -117.560084 135 9276ft 204kts
10-Jul-18 17:49 33.323089 -117.513631 135 7994ft 190kts
10-Jul-18 17:50 33.285135 -117.469328 135 8015ft 191kts
10-Jul-18 17:51 33.246879 -117.424731 135 8020ft 195kts
10-Jul-18 17:52 33.220111 -117.367168 110 7445ft 205kts
10-Jul-18 17:53 33.191733 -117.308443 127 6653ft 207kts
10-Jul-18 17:54 33.158900 -117.255714 127 5371ft 187kts
10-Jul-18 17:55 33.136167 -117.209218 191 3460ft 161kts
10-Jul-18 17:56 33.132047 -117.252818 261 959ft 100kts
10-Jul-18 17:57 33.128327 -117.278775 236 303ft 21kts
10-Jul-18 17:58 33.127877 -117.275230 146 303ft 19kts
10-Jul-18 17:59 33.127792 -117.274823 351 303ft 0kts
10-Jul-18 18:00 33.127792 -117.274823 351 303ft 0kts
10-Jul-18 18:01 33.127792 -117.274823 351 303ft 0kts
10-Jul-18 18:02 33.127792 -117.274823 351 303ft 0kts
10-Jul-18 18:03 33.127792 -117.274823 351 303ft 0kts
10-Jul-18 18:04 33.127792 -117.274823 351 303ft 0kts
10-Jul-18 18:05 33.127792 -117.274823 351 303ft 0kts
10-Jul-18 18:06 33.127792 -117.274823 351 303ft 0kts
10-Jul-18 18:07 33.127792 -117.274823 351 303ft 0kts
10-Jul-18 18:08 33.127792 -117.274823 351 303ft 0kts
10-Jul-18 18:09 33.127792 -117.274823 351 303ft 0kts
10-Jul-18 18:10 33.127792 -117.274823 351 303ft 0kts
10-Jul-18 18:11 33.127792 -117.274823 351 303ft 0kts

Navigation Log

Ident Type
Flight plan parsing failed, navigation log unavailable